www.hobby-wetter-faasend.de
Wetterdaten: aktuell Sonntag, 22.07.2018 10:00
Datum Zeit Temp. A. Temp. A. min Temp. A. max Feuchte A. Luftdruck Regen Wind Richtung Richtung Sonnenschein Taupunkt Windchill Windben
22.07.2018 10:00 19,6 C 19,4 C 19,6 C 77 % 1014,1 hPa 0,0 l/m 0,3 km/h (0 Bft) N-NO 12 0 min 15,5 C 19,6 C 4,8 km/h (1 Bft)
22.07.2018 09:45 19,4 C 19,3 C 19,4 C 77 % 1014,0 hPa 0,0 l/m 0,0 km/h (0 Bft) NW 311 0 min 15,3 C 19,4 C 1,6 km/h (1 Bft)
22.07.2018 09:30 19,3 C 19,3 C 19,3 C 77 % 1014,1 hPa 0,0 l/m 0,4 km/h (0 Bft) NW 311 0 min 15,2 C 19,3 C 4,8 km/h (1 Bft)
22.07.2018 09:15 19,3 C 19,3 C 19,3 C 77 % 1013,9 hPa 0,0 l/m 0,2 km/h (0 Bft) NW 313 0 min 15,2 C 19,3 C 4,8 km/h (1 Bft)
22.07.2018 09:00 19,3 C 19,2 C 19,3 C 78 % 1013,8 hPa 0,0 l/m 0,2 km/h (0 Bft) NW 313 0 min 15,4 C 19,3 C 4,8 km/h (1 Bft)
22.07.2018 08:45 19,2 C 18,9 C 19,2 C 79 % 1013,7 hPa 0,0 l/m 1,5 km/h (1 Bft) NW 313 0 min 15,5 C 19,2 C 8,0 km/h (2 Bft)
22.07.2018 08:30 18,9 C 18,3 C 18,9 C 81 % 1013,6 hPa 0,0 l/m 2,0 km/h (1 Bft) NW 317 0 min 15,6 C 18,9 C 9,7 km/h (2 Bft)
22.07.2018 08:15 18,3 C 17,9 C 18,3 C 85 % 1013,5 hPa 0,0 l/m 1,6 km/h (1 Bft) N-NW 346 0 min 15,7 C 18,3 C 6,4 km/h (2 Bft)
22.07.2018 08:00 17,9 C 17,5 C 17,9 C 87 % 1013,5 hPa 0,0 l/m 0,5 km/h (0 Bft) W-NW 292 0 min 15,7 C 17,9 C 6,4 km/h (2 Bft)
22.07.2018 07:45 17,5 C 17,3 C 17,5 C 88 % 1013,5 hPa 0,0 l/m 0,0 km/h (0 Bft) W-NW 291 0 min 15,5 C 17,5 C 0,0 km/h (0 Bft)
22.07.2018 07:30 17,3 C 17,1 C 17,3 C 89 % 1013,3 hPa 0,0 l/m 0,0 km/h (0 Bft) W-NW 291 0 min 15,5 C 17,3 C 1,6 km/h (1 Bft)
22.07.2018 07:15 17,1 C 16,9 C 17,1 C 90 % 1013,2 hPa 0,0 l/m 0,0 km/h (0 Bft) W-NW 290 0 min 15,4 C 17,1 C 1,6 km/h (1 Bft)
22.07.2018 07:00 16,9 C 16,8 C 16,9 C 89 % 1013,0 hPa 0,0 l/m 0,0 km/h (0 Bft) W-NW 291 0 min 15,1 C 16,9 C 0,0 km/h (0 Bft)
22.07.2018 06:45 16,8 C 16,8 C 16,8 C 89 % 1013,0 hPa 0,0 l/m 0,0 km/h (0 Bft) W-NW 291 0 min 15,0 C 16,8 C 0,0 km/h (0 Bft)
22.07.2018 06:30 16,8 C 16,8 C 16,8 C 89 % 1012,9 hPa 0,0 l/m 0,0 km/h (0 Bft) W-NW 291 0 min 15,0 C 16,8 C 0,0 km/h (0 Bft)
22.07.2018 06:15 16,8 C 16,8 C 16,8 C 89 % 1012,9 hPa 0,0 l/m 0,0 km/h (0 Bft) W-NW 291 0 min 15,0 C 16,8 C 0,0 km/h (0 Bft)
22.07.2018 06:00 16,8 C 16,8 C 16,8 C 89 % 1012,8 hPa 0,0 l/m 0,0 km/h (0 Bft) W-NW 291 0 min 15,0 C 16,8 C 0,0 km/h (0 Bft)
22.07.2018 05:45 16,8 C 16,8 C 16,8 C 89 % 1012,8 hPa 0,0 l/m 0,0 km/h (0 Bft) W-NW 291 0 min 15,0 C 16,8 C 0,0 km/h (0 Bft)
22.07.2018 05:30 16,8 C 16,8 C 16,8 C 89 % 1012,7 hPa 0,0 l/m 0,0 km/h (0 Bft) W-NW 291 0 min 15,0 C 16,8 C 0,0 km/h (0 Bft)
22.07.2018 05:15 16,8 C 16,8 C 16,8 C 89 % 1012,6 hPa 0,0 l/m 0,0 km/h (0 Bft) W-NW 291 0 min 15,0 C 16,8 C 0,0 km/h (0 Bft)
22.07.2018 05:00 16,8 C 16,7 C 16,8 C 89 % 1012,6 hPa 0,0 l/m 0,0 km/h (0 Bft) W-NW 291 0 min 15,0 C 16,8 C 0,0 km/h (0 Bft)
22.07.2018 04:45 16,7 C 16,7 C 16,7 C 89 % 1012,6 hPa 0,0 l/m 0,0 km/h (0 Bft) W-NW 291 0 min 14,9 C 16,7 C 0,0 km/h (0 Bft)
22.07.2018 04:30 16,7 C 16,7 C 16,7 C 88 % 1012,6 hPa 0,0 l/m 0,0 km/h (0 Bft) W-NW 291 0 min 14,7 C 16,7 C 0,0 km/h (0 Bft)
22.07.2018 04:15 16,7 C 16,7 C 16,7 C 88 % 1012,6 hPa 0,0 l/m 0,0 km/h (0 Bft) W-NW 291 0 min 14,7 C 16,7 C 0,0 km/h (0 Bft)
22.07.2018 04:00 16,7 C 16,7 C 16,8 C 88 % 1012,6 hPa 0,0 l/m 0,0 km/h (0 Bft) W-NW 291 0 min 14,7 C 16,7 C 0,0 km/h (0 Bft)
22.07.2018 03:45 16,7 C 16,7 C 16,8 C 88 % 1012,5 hPa 0,0 l/m 0,0 km/h (0 Bft) W-NW 291 0 min 14,7 C 16,7 C 0,0 km/h (0 Bft)
22.07.2018 03:30 16,8 C 16,8 C 16,8 C 88 % 1012,5 hPa 0,0 l/m 0,0 km/h (0 Bft) W-NW 291 0 min 14,8 C 16,8 C 0,0 km/h (0 Bft)
22.07.2018 03:15 16,8 C 16,8 C 16,8 C 87 % 1012,5 hPa 0,0 l/m 0,0 km/h (0 Bft) W-NW 291 0 min 14,6 C 16,8 C 0,0 km/h (0 Bft)
22.07.2018 03:00 16,8 C 16,8 C 16,8 C 86 % 1012,4 hPa 0,0 l/m 0,0 km/h (0 Bft) W-NW 291 0 min 14,4 C 16,8 C 0,0 km/h (0 Bft)
22.07.2018 02:45 16,8 C 16,8 C 16,9 C 86 % 1012,4 hPa 0,0 l/m 0,0 km/h (0 Bft) W-NW 291 0 min 14,4 C 16,8 C 0,0 km/h (0 Bft)
22.07.2018 02:30 16,9 C 16,9 C 17,1 C 86 % 1012,4 hPa 0,0 l/m 0,0 km/h (0 Bft) W-NW 291 0 min 14,5 C 16,9 C 0,0 km/h (0 Bft)
22.07.2018 02:15 17,1 C 17,1 C 17,2 C 85 % 1012,5 hPa 0,0 l/m 0,0 km/h (0 Bft) W-NW 291 0 min 14,6 C 17,1 C 0,0 km/h (0 Bft)
22.07.2018 02:00 17,2 C 17,2 C 17,3 C 85 % 1012,4 hPa 0,0 l/m 0,0 km/h (0 Bft) W-NW 291 0 min 14,7 C 17,2 C 0,0 km/h (0 Bft)
22.07.2018 01:45 17,3 C 17,2 C 17,4 C 84 % 1012,5 hPa 0,0 l/m 0,0 km/h (0 Bft) W-NW 291 0 min 14,6 C 17,3 C 0,0 km/h (0 Bft)
22.07.2018 01:30 17,4 C 17,4 C 17,6 C 83 % 1012,6 hPa 0,0 l/m 0,0 km/h (0 Bft) W-NW 291 0 min 14,5 C 17,4 C 0,0 km/h (0 Bft)
22.07.2018 01:15 17,6 C 17,6 C 17,9 C 82 % 1012,5 hPa 0,0 l/m 0,0 km/h (0 Bft) W-NW 291 0 min 14,5 C 17,6 C 0,0 km/h (0 Bft)
22.07.2018 01:00 17,9 C 17,9 C 18,2 C 82 % 1012,4 hPa 0,0 l/m 0,0 km/h (0 Bft) W-NW 291 0 min 14,8 C 17,9 C 0,0 km/h (0 Bft)
22.07.2018 00:45 18,2 C 18,2 C 18,5 C 80 % 1012,5 hPa 0,0 l/m 0,0 km/h (0 Bft) W-NW 291 0 min 14,7 C 18,2 C 0,0 km/h (0 Bft)
22.07.2018 00:30 18,5 C 18,5 C 18,8 C 79 % 1012,4 hPa 0,0 l/m 0,0 km/h (0 Bft) W-NW 291 0 min 14,8 C 18,5 C 0,0 km/h (0 Bft)
22.07.2018 00:15 18,8 C 18,8 C 19,2 C 77 % 1012,3 hPa 0,0 l/m 0,0 km/h (0 Bft) W-NW 291 0 min 14,7 C 18,8 C 0,0 km/h (0 Bft)
22.07.2018 00:00 19,2 C 19,2 C 19,6 C 76 % 1012,2 hPa 0,0 l/m 0,0 km/h (0 Bft) W-NW 291 0 min 14,9 C 19,2 C 0,0 km/h (0 Bft)
21.07.2018 23:45 19,6 C 19,6 C 19,9 C 76 % 1012,2 hPa 0,0 l/m 0,0 km/h (0 Bft) W-NW 291 0 min 15,2 C 19,6 C 0,0 km/h (0 Bft)
21.07.2018 23:30 19,9 C 19,9 C 20,3 C 75 % 1012,1 hPa 0,0 l/m 0,0 km/h (0 Bft) W-NW 291 0 min 15,3 C 19,9 C 0,0 km/h (0 Bft)
21.07.2018 23:15 20,3 C 20,3 C 20,8 C 74 % 1012,1 hPa 0,0 l/m 0,0 km/h (0 Bft) W-NW 291 0 min 15,5 C 20,3 C 0,0 km/h (0 Bft)
21.07.2018 23:00 20,8 C 20,8 C 21,3 C 72 % 1012,0 hPa 0,0 l/m 0,6 km/h (0 Bft) W-NW 291 0 min 15,6 C 20,8 C 4,8 km/h (1 Bft)
21.07.2018 22:45 21,3 C 21,3 C 21,8 C 71 % 1012,0 hPa 0,0 l/m 0,0 km/h (0 Bft) NW 305 0 min 15,8 C 21,3 C 1,6 km/h (1 Bft)
21.07.2018 22:30 21,8 C 21,8 C 22,2 C 68 % 1012,0 hPa 0,0 l/m 0,0 km/h (0 Bft) NW 305 0 min 15,6 C 21,8 C 0,0 km/h (0 Bft)
21.07.2018 22:15 22,2 C 22,2 C 22,6 C 66 % 1012,1 hPa 0,0 l/m 0,0 km/h (0 Bft) NW 305 0 min 15,5 C 22,2 C 0,0 km/h (0 Bft)
21.07.2018 22:00 22,6 C 22,6 C 22,8 C 64 % 1012,0 hPa 0,0 l/m 0,0 km/h (0 Bft) NW 305 0 min 15,4 C 22,6 C 1,6 km/h (1 Bft)
21.07.2018 21:45 22,8 C 22,8 C 23,1 C 62 % 1011,9 hPa 0,0 l/m 0,0 km/h (0 Bft) NW 305 0 min 15,1 C 22,8 C 1,6 km/h (1 Bft)
21.07.2018 21:30 23,1 C 23,1 C 23,3 C 61 % 1011,8 hPa 0,0 l/m 0,1 km/h (0 Bft) NW 305 0 min 15,2 C 23,1 C 4,8 km/h (1 Bft)
21.07.2018 21:15 23,3 C 23,3 C 23,8 C 60 % 1011,6 hPa 0,0 l/m 0,9 km/h (0 Bft) NW 305 0 min 15,1 C 23,3 C 9,7 km/h (2 Bft)
21.07.2018 21:00 23,8 C 23,8 C 24,1 C 59 % 1011,5 hPa 0,0 l/m 0,0 km/h (0 Bft) NW 317 0 min 15,3 C 23,8 C 1,6 km/h (1 Bft)
21.07.2018 20:45 24,1 C 24,1 C 24,5 C 58 % 1011,4 hPa 0,0 l/m 1,6 km/h (1 Bft) NW 317 0 min 15,3 C 24,1 C 12,9 km/h (3 Bft)
21.07.2018 20:30 24,5 C 24,5 C 24,7 C 57 % 1011,4 hPa 0,0 l/m 0,5 km/h (0 Bft) NW 322 0 min 15,4 C 24,5 C 4,8 km/h (1 Bft)
21.07.2018 20:15 24,7 C 24,7 C 24,8 C 57 % 1011,3 hPa 0,0 l/m 0,4 km/h (0 Bft) W 277 0 min 15,6 C 24,7 C 8,0 km/h (2 Bft)
21.07.2018 20:00 24,8 C 24,8 C 25,0 C 57 % 1011,1 hPa 0,0 l/m 0,7 km/h (0 Bft) NW 325 0 min 15,7 C 24,8 C 8,0 km/h (2 Bft)
21.07.2018 19:45 24,9 C 24,9 C 25,1 C 57 % 1011,2 hPa 0,0 l/m 1,1 km/h (1 Bft) W-NW 301 0 min 15,8 C 24,9 C 6,4 km/h (2 Bft)
21.07.2018 19:30 25,1 C 25,0 C 25,2 C 58 % 1011,1 hPa 0,0 l/m 0,1 km/h (0 Bft) W-NW 282 0 min 16,2 C 25,1 C 4,8 km/h (1 Bft)
21.07.2018 19:15 25,2 C 25,2 C 25,7 C 56 % 1011,1 hPa 0,0 l/m 2,2 km/h (1 Bft) W-NW 285 0 min 15,8 C 25,2 C 11,3 km/h (2 Bft)
21.07.2018 19:00 25,7 C 25,7 C 25,9 C 54 % 1011,2 hPa 0,0 l/m 1,6 km/h (1 Bft) W 264 0 min 15,7 C 25,7 C 12,9 km/h (3 Bft)
21.07.2018 18:45 25,9 C 25,9 C 26,2 C 54 % 1011,1 hPa 0,0 l/m 1,7 km/h (1 Bft) W-NW 298 0 min 15,9 C 25,9 C 11,3 km/h (2 Bft)
21.07.2018 18:30 26,2 C 26,2 C 26,4 C 53 % 1011,1 hPa 0,0 l/m 2,2 km/h (1 Bft) W 260 0 min 15,8 C 26,2 C 12,9 km/h (3 Bft)
21.07.2018 18:15 26,4 C 26,4 C 26,5 C 54 % 1011,1 hPa 0,0 l/m 2,1 km/h (1 Bft) W 275 0 min 16,3 C 26,4 C 16,1 km/h (3 Bft)
21.07.2018 18:00 26,5 C 26,4 C 26,6 C 53 % 1011,1 hPa 0,0 l/m 1,8 km/h (1 Bft) NW 307 0 min 16,1 C 26,5 C 16,1 km/h (3 Bft)
21.07.2018 17:45 26,6 C 26,4 C 26,7 C 54 % 1011,1 hPa 0,0 l/m 4,1 km/h (1 Bft) NW 310 0 min 16,5 C 26,6 C 14,5 km/h (3 Bft)
21.07.2018 17:30 26,4 C 26,3 C 26,4 C 55 % 1011,1 hPa 0,0 l/m 2,0 km/h (1 Bft) O 82 0 min 16,6 C 26,4 C 11,3 km/h (2 Bft)
21.07.2018 17:15 26,3 C 26,1 C 26,3 C 55 % 1011,0 hPa 0,0 l/m 2,7 km/h (1 Bft) W-NW 300 0 min 16,5 C 26,3 C 12,9 km/h (3 Bft)
21.07.2018 17:00 26,1 C 25,8 C 26,1 C 55 % 1011,1 hPa 0,0 l/m 2,9 km/h (1 Bft) SW 220 0 min 16,3 C 26,1 C 11,3 km/h (2 Bft)
21.07.2018 16:45 25,8 C 25,6 C 25,8 C 57 % 1011,0 hPa 0,0 l/m 2,8 km/h (1 Bft) SW 214 0 min 16,6 C 25,8 C 14,5 km/h (3 Bft)
21.07.2018 16:30 25,6 C 25,1 C 25,6 C 59 % 1011,1 hPa 0,0 l/m 1,9 km/h (1 Bft) N 355 0 min 17,0 C 25,6 C 9,7 km/h (2 Bft)
21.07.2018 16:15 25,1 C 24,9 C 25,1 C 60 % 1011,2 hPa 0,0 l/m 4,0 km/h (1 Bft) S 181 0 min 16,8 C 25,1 C 17,7 km/h (3 Bft)
21.07.2018 16:00 24,9 C 24,5 C 24,9 C 60 % 1011,4 hPa 0,0 l/m 2,9 km/h (1 Bft) NW 313 0 min 16,6 C 24,9 C 11,3 km/h (2 Bft)
21.07.2018 15:45 24,5 C 24,4 C 24,8 C 63 % 1011,3 hPa 0,0 l/m 3,3 km/h (1 Bft) S-SO 151 0 min 17,0 C 24,5 C 12,9 km/h (3 Bft)
21.07.2018 15:30 24,8 C 24,7 C 25,0 C 60 % 1011,5 hPa 0,0 l/m 5,1 km/h (1 Bft) W 266 0 min 16,5 C 24,8 C 19,3 km/h (3 Bft)
21.07.2018 15:15 24,7 C 23,7 C 24,7 C 65 % 1011,6 hPa 0,0 l/m 3,5 km/h (1 Bft) SW 214 0 min 17,7 C 24,7 C 14,5 km/h (3 Bft)
21.07.2018 15:00 23,7 C 23,4 C 23,7 C 67 % 1011,7 hPa 0,0 l/m 3,8 km/h (1 Bft) S 169 0 min 17,2 C 23,7 C 14,5 km/h (3 Bft)
21.07.2018 14:45 23,6 C 23,2 C 23,6 C 67 % 1011,8 hPa 0,0 l/m 1,9 km/h (1 Bft) NW 309 0 min 17,1 C 23,6 C 12,9 km/h (3 Bft)
21.07.2018 14:30 23,2 C 22,7 C 23,2 C 68 % 1011,9 hPa 0,0 l/m 2,4 km/h (1 Bft) SW 223 0 min 17,0 C 23,2 C 16,1 km/h (3 Bft)
21.07.2018 14:15 22,7 C 22,3 C 22,7 C 72 % 1011,9 hPa 0,0 l/m 3,6 km/h (1 Bft) W 276 0 min 17,4 C 22,7 C 16,1 km/h (3 Bft)
21.07.2018 14:00 22,4 C 22,3 C 22,8 C 72 % 1012,0 hPa 0,0 l/m 3,4 km/h (1 Bft) SW 223 0 min 17,1 C 22,4 C 16,1 km/h (3 Bft)
21.07.2018 13:45 22,8 C 22,8 C 22,9 C 71 % 1011,9 hPa 0,0 l/m 1,4 km/h (1 Bft) SW 231 0 min 17,3 C 22,8 C 16,1 km/h (3 Bft)
21.07.2018 13:30 22,9 C 22,6 C 22,9 C 71 % 1011,7 hPa 0,0 l/m 1,8 km/h (1 Bft) O-SO 123 0 min 17,4 C 22,9 C 12,9 km/h (3 Bft)
21.07.2018 13:15 22,6 C 22,6 C 22,8 C 71 % 1011,8 hPa 0,0 l/m 2,0 km/h (1 Bft) S-SW 192 0 min 17,1 C 22,6 C 12,9 km/h (3 Bft)
21.07.2018 13:00 22,8 C 22,7 C 22,8 C 72 % 1011,7 hPa 0,0 l/m 2,5 km/h (1 Bft) SW 218 0 min 17,5 C 22,8 C 11,3 km/h (2 Bft)
21.07.2018 12:45 22,7 C 22,6 C 22,7 C 73 % 1011,7 hPa 0,0 l/m 1,7 km/h (1 Bft) SW 224 0 min 17,6 C 22,7 C 11,3 km/h (2 Bft)
21.07.2018 12:30 22,7 C 22,7 C 22,8 C 73 % 1011,6 hPa 0,0 l/m 2,7 km/h (1 Bft) NW 321 0 min 17,6 C 22,7 C 16,1 km/h (3 Bft)
21.07.2018 12:15 22,7 C 22,4 C 22,7 C 73 % 1011,5 hPa 0,0 l/m 5,7 km/h (1 Bft) SW 215 0 min 17,6 C 22,7 C 20,9 km/h (4 Bft)
21.07.2018 12:00 22,4 C 22,1 C 22,4 C 75 % 1011,5 hPa 0,0 l/m 2,2 km/h (1 Bft) W-NW 300 0 min 17,7 C 22,4 C 14,5 km/h (3 Bft)
21.07.2018 11:45 22,1 C 21,7 C 22,1 C 76 % 1011,3 hPa 0,0 l/m 2,1 km/h (1 Bft) N-NW 327 0 min 17,7 C 22,1 C 11,3 km/h (2 Bft)
21.07.2018 11:30 21,7 C 21,5 C 21,7 C 76 % 1011,3 hPa 0,0 l/m 5,2 km/h (1 Bft) W 276 0 min 17,3 C 21,7 C 14,5 km/h (3 Bft)
21.07.2018 11:15 21,5 C 21,2 C 21,5 C 76 % 1011,3 hPa 0,0 l/m 2,9 km/h (1 Bft) W-NW 296 0 min 17,1 C 21,5 C 14,5 km/h (3 Bft)
21.07.2018 11:00 21,2 C 21,1 C 21,2 C 77 % 1011,2 hPa 0,0 l/m 0,8 km/h (0 Bft) W-NW 290 0 min 17,0 C 21,2 C 6,4 km/h (2 Bft)
_ Min-Zeit 03:45 03:45 04:15 18:00 16:45 - 21:00 - - - 02:45 03:45 22:15
Minimum _ 16,7 C 16,7 C 16,7 C 53 % 1011,0 hPa - 0,0 km/h (0 Bft) - - - 14,4 C 16,7 C 0,0 km/h (0 Bft)
_ Max-Zeit 17:45 17:45 17:45 07:15 09:30 11:00 12:15 - - 11:00 12:00 17:45 12:15
Maximum _ 26,7 C 26,4 C 26,7 C 90 % 1014,1 hPa 0,0 l/m 5,7 km/h
SW (1 Bft)
- - 0 min 17,7 C 26,6 C 20,9 km/h
W (4 Bft)
Durchschnitt _ 21,0 C 20,9 C 21,1 C 74 % 1012,1 hPa #0,0 l/m 1,1 km/h (1 Bft) SW - #0 min. 15,9 C 21,0 C 6,4 km/h (2 Bft)